sensor_id;sensor_type;location;lat;lon;timestamp;P1;durP1;ratioP1;P2;durP2;ratioP2
24277;SDS011;12394;42.692;23.314;2023-10-13T00:00:28;23.50;;;9.70;;
24277;SDS011;12394;42.692;23.314;2023-10-13T00:02:57;20.37;;;10.60;;
24277;SDS011;12394;42.692;23.314;2023-10-13T00:05:29;15.27;;;9.17;;
24277;SDS011;12394;42.692;23.314;2023-10-13T00:07:59;15.87;;;9.17;;
24277;SDS011;12394;42.692;23.314;2023-10-13T00:10:28;16.50;;;10.30;;
24277;SDS011;12394;42.692;23.314;2023-10-13T00:12:54;18.47;;;9.57;;
24277;SDS011;12394;42.692;23.314;2023-10-13T00:15:30;18.93;;;9.13;;
24277;SDS011;12394;42.692;23.314;2023-10-13T00:18:04;22.77;;;9.37;;
24277;SDS011;12394;42.692;23.314;2023-10-13T00:20:37;19.93;;;9.67;;
24277;SDS011;12394;42.692;23.314;2023-10-13T00:23:13;20.33;;;11.67;;
24277;SDS011;12394;42.692;23.314;2023-10-13T00:25:38;16.40;;;9.13;;
24277;SDS011;12394;42.692;23.314;2023-10-13T00:28:15;15.70;;;9.13;;
24277;SDS011;12394;42.692;23.314;2023-10-13T00:30:50;21.60;;;9.23;;
24277;SDS011;12394;42.692;23.314;2023-10-13T00:33:18;15.07;;;8.87;;
24277;SDS011;12394;42.692;23.314;2023-10-13T00:35:49;15.47;;;8.33;;
24277;SDS011;12394;42.692;23.314;2023-10-13T00:38:16;13.93;;;8.80;;
24277;SDS011;12394;42.692;23.314;2023-10-13T00:40:45;17.10;;;9.90;;
24277;SDS011;12394;42.692;23.314;2023-10-13T00:43:17;29.43;;;8.33;;
24277;SDS011;12394;42.692;23.314;2023-10-13T00:45:52;15.97;;;8.63;;
24277;SDS011;12394;42.692;23.314;2023-10-13T00:48:30;16.43;;;8.70;;
24277;SDS011;12394;42.692;23.314;2023-10-13T00:51:07;22.80;;;9.20;;
24277;SDS011;12394;42.692;23.314;2023-10-13T00:53:34;20.47;;;9.07;;
24277;SDS011;12394;42.692;23.314;2023-10-13T00:56:05;15.90;;;9.07;;
24277;SDS011;12394;42.692;23.314;2023-10-13T00:58:43;17.47;;;9.07;;
24277;SDS011;12394;42.692;23.314;2023-10-13T01:01:11;17.93;;;10.70;;
24277;SDS011;12394;42.692;23.314;2023-10-13T01:03:50;25.37;;;10.20;;
24277;SDS011;12394;42.692;23.314;2023-10-13T01:06:33;20.10;;;9.67;;
24277;SDS011;12394;42.692;23.314;2023-10-13T01:09:01;14.87;;;9.23;;
24277;SDS011;12394;42.692;23.314;2023-10-13T01:11:38;22.57;;;10.87;;
24277;SDS011;12394;42.692;23.314;2023-10-13T01:14:05;21.80;;;9.77;;
24277;SDS011;12394;42.692;23.314;2023-10-13T01:16:31;23.27;;;10.53;;
24277;SDS011;12394;42.692;23.314;2023-10-13T01:18:57;22.70;;;10.43;;
24277;SDS011;12394;42.692;23.314;2023-10-13T01:21:25;26.60;;;10.63;;
24277;SDS011;12394;42.692;23.314;2023-10-13T01:23:55;19.70;;;10.63;;
24277;SDS011;12394;42.692;23.314;2023-10-13T01:26:20;27.47;;;10.67;;
24277;SDS011;12394;42.692;23.314;2023-10-13T01:28:56;16.47;;;10.63;;
24277;SDS011;12394;42.692;23.314;2023-10-13T01:31:22;24.93;;;10.90;;
24277;SDS011;12394;42.692;23.314;2023-10-13T01:33:55;26.57;;;10.77;;
24277;SDS011;12394;42.692;23.314;2023-10-13T01:36:24;19.67;;;11.03;;
24277;SDS011;12394;42.692;23.314;2023-10-13T01:38:53;20.97;;;10.43;;
24277;SDS011;12394;42.692;23.314;2023-10-13T01:41:20;20.73;;;9.23;;
24277;SDS011;12394;42.692;23.314;2023-10-13T01:43:46;18.67;;;9.67;;
24277;SDS011;12394;42.692;23.314;2023-10-13T01:46:13;17.23;;;10.37;;
24277;SDS011;12394;42.692;23.314;2023-10-13T01:48:40;27.17;;;9.93;;
24277;SDS011;12394;42.692;23.314;2023-10-13T01:51:06;15.90;;;10.53;;
24277;SDS011;12394;42.692;23.314;2023-10-13T01:53:35;16.40;;;9.17;;
24277;SDS011;12394;42.692;23.314;2023-10-13T01:56:01;17.63;;;9.80;;
24277;SDS011;12394;42.692;23.314;2023-10-13T01:58:30;17.50;;;9.67;;
24277;SDS011;12394;42.692;23.314;2023-10-13T02:00:56;14.87;;;9.13;;
24277;SDS011;12394;42.692;23.314;2023-10-13T02:03:22;14.63;;;8.90;;
24277;SDS011;12394;42.692;23.314;2023-10-13T02:05:48;14.00;;;9.27;;
24277;SDS011;12394;42.692;23.314;2023-10-13T02:08:17;22.63;;;9.13;;
24277;SDS011;12394;42.692;23.314;2023-10-13T02:13:16;16.33;;;9.30;;
24277;SDS011;12394;42.692;23.314;2023-10-13T02:15:46;16.43;;;9.37;;
24277;SDS011;12394;42.692;23.314;2023-10-13T02:18:17;17.67;;;9.50;;
24277;SDS011;12394;42.692;23.314;2023-10-13T02:20:54;17.60;;;9.10;;
24277;SDS011;12394;42.692;23.314;2023-10-13T02:23:22;16.83;;;9.33;;
24277;SDS011;12394;42.692;23.314;2023-10-13T02:25:54;16.63;;;8.97;;
24277;SDS011;12394;42.692;23.314;2023-10-13T02:28:27;17.90;;;9.93;;
24277;SDS011;12394;42.692;23.314;2023-10-13T02:30:56;18.40;;;9.80;;
24277;SDS011;12394;42.692;23.314;2023-10-13T02:33:23;26.53;;;11.27;;
24277;SDS011;12394;42.692;23.314;2023-10-13T02:35:58;19.73;;;10.37;;
24277;SDS011;12394;42.692;23.314;2023-10-13T02:38:24;20.20;;;10.83;;
24277;SDS011;12394;42.692;23.314;2023-10-13T02:41:12;21.83;;;10.07;;
24277;SDS011;12394;42.692;23.314;2023-10-13T02:43:50;26.87;;;11.30;;
24277;SDS011;12394;42.692;23.314;2023-10-13T02:46:15;18.63;;;10.40;;
24277;SDS011;12394;42.692;23.314;2023-10-13T02:48:41;16.20;;;10.33;;
24277;SDS011;12394;42.692;23.314;2023-10-13T02:51:07;16.53;;;9.77;;
24277;SDS011;12394;42.692;23.314;2023-10-13T02:53:46;18.00;;;9.37;;
24277;SDS011;12394;42.692;23.314;2023-10-13T02:56:15;18.70;;;9.60;;
24277;SDS011;12394;42.692;23.314;2023-10-13T02:58:46;15.37;;;8.87;;
24277;SDS011;12394;42.692;23.314;2023-10-13T03:01:18;13.30;;;8.97;;
24277;SDS011;12394;42.692;23.314;2023-10-13T03:03:48;17.83;;;9.90;;
24277;SDS011;12394;42.692;23.314;2023-10-13T03:06:19;17.20;;;9.00;;
24277;SDS011;12394;42.692;23.314;2023-10-13T03:08:59;17.63;;;8.70;;
24277;SDS011;12394;42.692;23.314;2023-10-13T03:11:38;15.50;;;9.40;;
24277;SDS011;12394;42.692;23.314;2023-10-13T03:14:07;14.13;;;9.13;;
24277;SDS011;12394;42.692;23.314;2023-10-13T03:16:33;16.27;;;9.43;;
24277;SDS011;12394;42.692;23.314;2023-10-13T03:18:59;14.70;;;8.63;;
24277;SDS011;12394;42.692;23.314;2023-10-13T03:21:25;17.33;;;8.47;;
24277;SDS011;12394;42.692;23.314;2023-10-13T03:23:55;20.27;;;9.47;;
24277;SDS011;12394;42.692;23.314;2023-10-13T03:26:33;17.07;;;8.83;;
24277;SDS011;12394;42.692;23.314;2023-10-13T03:29:03;21.07;;;9.03;;
24277;SDS011;12394;42.692;23.314;2023-10-13T03:31:32;18.67;;;8.90;;
24277;SDS011;12394;42.692;23.314;2023-10-13T03:34:02;14.20;;;8.87;;
24277;SDS011;12394;42.692;23.314;2023-10-13T03:36:29;15.70;;;9.40;;
24277;SDS011;12394;42.692;23.314;2023-10-13T03:39:13;15.93;;;9.20;;
24277;SDS011;12394;42.692;23.314;2023-10-13T03:41:39;14.93;;;9.00;;
24277;SDS011;12394;42.692;23.314;2023-10-13T03:44:05;22.07;;;8.90;;
24277;SDS011;12394;42.692;23.314;2023-10-13T03:46:38;16.60;;;9.10;;
24277;SDS011;12394;42.692;23.314;2023-10-13T03:49:06;17.97;;;8.90;;
24277;SDS011;12394;42.692;23.314;2023-10-13T03:51:38;19.53;;;8.87;;
24277;SDS011;12394;42.692;23.314;2023-10-13T03:54:04;19.27;;;9.53;;
24277;SDS011;12394;42.692;23.314;2023-10-13T03:56:32;16.80;;;9.50;;
24277;SDS011;12394;42.692;23.314;2023-10-13T03:59:04;17.50;;;8.47;;
24277;SDS011;12394;42.692;23.314;2023-10-13T04:01:34;18.63;;;9.43;;
24277;SDS011;12394;42.692;23.314;2023-10-13T04:04:19;16.57;;;9.63;;
24277;SDS011;12394;42.692;23.314;2023-10-13T04:07:04;14.63;;;9.23;;
24277;SDS011;12394;42.692;23.314;2023-10-13T04:09:32;15.33;;;9.50;;
24277;SDS011;12394;42.692;23.314;2023-10-13T04:12:18;22.23;;;9.67;;
24277;SDS011;12394;42.692;23.314;2023-10-13T04:14:51;34.10;;;11.13;;
24277;SDS011;12394;42.692;23.314;2023-10-13T04:17:22;15.90;;;9.70;;
24277;SDS011;12394;42.692;23.314;2023-10-13T04:19:51;23.53;;;9.70;;
24277;SDS011;12394;42.692;23.314;2023-10-13T04:25:17;16.83;;;9.83;;
24277;SDS011;12394;42.692;23.314;2023-10-13T04:30:40;19.67;;;10.20;;
24277;SDS011;12394;42.692;23.314;2023-10-13T04:33:21;24.90;;;10.97;;
24277;SDS011;12394;42.692;23.314;2023-10-13T04:36:09;22.17;;;10.03;;
24277;SDS011;12394;42.692;23.314;2023-10-13T04:38:44;22.97;;;9.83;;
24277;SDS011;12394;42.692;23.314;2023-10-13T04:41:39;17.63;;;9.60;;
24277;SDS011;12394;42.692;23.314;2023-10-13T04:44:09;16.60;;;9.67;;
24277;SDS011;12394;42.692;23.314;2023-10-13T04:46:54;28.67;;;11.77;;
24277;SDS011;12394;42.692;23.314;2023-10-13T04:49:24;20.27;;;10.37;;
24277;SDS011;12394;42.692;23.314;2023-10-13T04:52:08;16.57;;;10.23;;
24277;SDS011;12394;42.692;23.314;2023-10-13T04:54:35;19.07;;;9.50;;
24277;SDS011;12394;42.692;23.314;2023-10-13T04:57:19;19.10;;;9.83;;
24277;SDS011;12394;42.692;23.314;2023-10-13T05:00:03;14.40;;;8.97;;
24277;SDS011;12394;42.692;23.314;2023-10-13T05:02:36;17.83;;;10.07;;
24277;SDS011;12394;42.692;23.314;2023-10-13T05:05:12;16.60;;;10.70;;
24277;SDS011;12394;42.692;23.314;2023-10-13T05:07:39;25.57;;;12.10;;
24277;SDS011;12394;42.692;23.314;2023-10-13T05:10:24;25.57;;;11.13;;
24277;SDS011;12394;42.692;23.314;2023-10-13T05:13:07;23.53;;;11.07;;
24277;SDS011;12394;42.692;23.314;2023-10-13T05:15:52;30.77;;;11.60;;
24277;SDS011;12394;42.692;23.314;2023-10-13T05:18:36;24.43;;;10.70;;
24277;SDS011;12394;42.692;23.314;2023-10-13T05:21:20;27.33;;;12.37;;
24277;SDS011;12394;42.692;23.314;2023-10-13T05:24:05;24.00;;;10.83;;
24277;SDS011;12394;42.692;23.314;2023-10-13T05:26:50;24.40;;;11.10;;
24277;SDS011;12394;42.692;23.314;2023-10-13T05:29:38;23.73;;;11.10;;
24277;SDS011;12394;42.692;23.314;2023-10-13T05:32:23;19.30;;;10.83;;
24277;SDS011;12394;42.692;23.314;2023-10-13T05:35:07;40.87;;;16.20;;
24277;SDS011;12394;42.692;23.314;2023-10-13T05:37:50;29.63;;;13.33;;
24277;SDS011;12394;42.692;23.314;2023-10-13T05:40:34;26.37;;;12.30;;
24277;SDS011;12394;42.692;23.314;2023-10-13T05:43:18;36.80;;;14.03;;
24277;SDS011;12394;42.692;23.314;2023-10-13T05:46:03;24.03;;;12.70;;
24277;SDS011;12394;42.692;23.314;2023-10-13T05:48:48;21.93;;;10.93;;
24277;SDS011;12394;42.692;23.314;2023-10-13T05:51:29;22.37;;;11.40;;
24277;SDS011;12394;42.692;23.314;2023-10-13T05:54:09;25.43;;;11.80;;
24277;SDS011;12394;42.692;23.314;2023-10-13T05:56:47;28.27;;;12.27;;
24277;SDS011;12394;42.692;23.314;2023-10-13T05:59:32;24.97;;;11.00;;
24277;SDS011;12394;42.692;23.314;2023-10-13T06:02:18;22.30;;;10.70;;
24277;SDS011;12394;42.692;23.314;2023-10-13T06:05:04;19.40;;;10.67;;
24277;SDS011;12394;42.692;23.314;2023-10-13T06:07:49;26.83;;;11.47;;
24277;SDS011;12394;42.692;23.314;2023-10-13T06:10:33;28.87;;;11.17;;
24277;SDS011;12394;42.692;23.314;2023-10-13T06:13:18;18.80;;;9.97;;
24277;SDS011;12394;42.692;23.314;2023-10-13T06:16:09;16.90;;;9.07;;
24277;SDS011;12394;42.692;23.314;2023-10-13T06:18:54;22.43;;;10.60;;
24277;SDS011;12394;42.692;23.314;2023-10-13T06:21:38;21.13;;;11.17;;
24277;SDS011;12394;42.692;23.314;2023-10-13T06:24:22;17.83;;;9.53;;
24277;SDS011;12394;42.692;23.314;2023-10-13T06:27:06;25.70;;;11.80;;
24277;SDS011;12394;42.692;23.314;2023-10-13T06:29:50;43.30;;;12.60;;
24277;SDS011;12394;42.692;23.314;2023-10-13T06:32:18;23.87;;;11.27;;
24277;SDS011;12394;42.692;23.314;2023-10-13T06:34:44;26.07;;;12.30;;
24277;SDS011;12394;42.692;23.314;2023-10-13T06:37:13;29.33;;;12.53;;
24277;SDS011;12394;42.692;23.314;2023-10-13T06:39:54;29.00;;;11.67;;
24277;SDS011;12394;42.692;23.314;2023-10-13T06:42:39;28.90;;;13.40;;
24277;SDS011;12394;42.692;23.314;2023-10-13T06:45:08;26.13;;;12.83;;
24277;SDS011;12394;42.692;23.314;2023-10-13T06:47:34;25.83;;;13.03;;
24277;SDS011;12394;42.692;23.314;2023-10-13T06:50:05;34.47;;;13.53;;
24277;SDS011;12394;42.692;23.314;2023-10-13T06:52:40;26.07;;;13.40;;
24277;SDS011;12394;42.692;23.314;2023-10-13T06:55:07;27.10;;;12.63;;
24277;SDS011;12394;42.692;23.314;2023-10-13T06:57:35;34.17;;;13.63;;
24277;SDS011;12394;42.692;23.314;2023-10-13T07:00:00;26.50;;;13.50;;
24277;SDS011;12394;42.692;23.314;2023-10-13T07:02:32;25.53;;;12.97;;
24277;SDS011;12394;42.692;23.314;2023-10-13T07:04:59;24.57;;;14.20;;
24277;SDS011;12394;42.692;23.314;2023-10-13T07:07:38;24.13;;;12.43;;
24277;SDS011;12394;42.692;23.314;2023-10-13T07:10:11;30.17;;;12.23;;
24277;SDS011;12394;42.692;23.314;2023-10-13T07:12:40;20.17;;;11.60;;
24277;SDS011;12394;42.692;23.314;2023-10-13T07:15:08;22.13;;;11.70;;
24277;SDS011;12394;42.692;23.314;2023-10-13T07:17:44;25.07;;;11.87;;
24277;SDS011;12394;42.692;23.314;2023-10-13T07:20:11;31.87;;;13.07;;
24277;SDS011;12394;42.692;23.314;2023-10-13T07:22:39;25.73;;;12.07;;
24277;SDS011;12394;42.692;23.314;2023-10-13T07:25:05;18.10;;;12.63;;
24277;SDS011;12394;42.692;23.314;2023-10-13T07:27:34;21.10;;;13.47;;
24277;SDS011;12394;42.692;23.314;2023-10-13T07:30:00;26.60;;;13.60;;
24277;SDS011;12394;42.692;23.314;2023-10-13T07:32:38;29.60;;;14.07;;
24277;SDS011;12394;42.692;23.314;2023-10-13T07:35:11;24.93;;;15.20;;
24277;SDS011;12394;42.692;23.314;2023-10-13T07:37:43;26.90;;;15.77;;
24277;SDS011;12394;42.692;23.314;2023-10-13T07:40:09;30.57;;;16.57;;
24277;SDS011;12394;42.692;23.314;2023-10-13T07:42:56;25.93;;;15.17;;
24277;SDS011;12394;42.692;23.314;2023-10-13T07:45:43;31.77;;;15.83;;
24277;SDS011;12394;42.692;23.314;2023-10-13T07:48:09;26.57;;;16.43;;
24277;SDS011;12394;42.692;23.314;2023-10-13T07:50:46;34.80;;;16.17;;
24277;SDS011;12394;42.692;23.314;2023-10-13T07:53:13;34.50;;;16.30;;
24277;SDS011;12394;42.692;23.314;2023-10-13T07:55:48;30.50;;;15.17;;
24277;SDS011;12394;42.692;23.314;2023-10-13T07:58:20;28.00;;;15.03;;
24277;SDS011;12394;42.692;23.314;2023-10-13T08:00:50;34.03;;;16.77;;
24277;SDS011;12394;42.692;23.314;2023-10-13T08:03:32;30.57;;;16.43;;
24277;SDS011;12394;42.692;23.314;2023-10-13T08:06:13;33.27;;;17.70;;
24277;SDS011;12394;42.692;23.314;2023-10-13T08:08:40;36.27;;;17.57;;
24277;SDS011;12394;42.692;23.314;2023-10-13T08:13:39;31.87;;;16.87;;
24277;SDS011;12394;42.692;23.314;2023-10-13T08:16:11;37.17;;;18.87;;
24277;SDS011;12394;42.692;23.314;2023-10-13T08:18:50;31.40;;;20.03;;
24277;SDS011;12394;42.692;23.314;2023-10-13T08:21:17;39.77;;;17.93;;
24277;SDS011;12394;42.692;23.314;2023-10-13T08:23:48;33.67;;;18.67;;
24277;SDS011;12394;42.692;23.314;2023-10-13T08:26:23;37.77;;;18.37;;
24277;SDS011;12394;42.692;23.314;2023-10-13T08:29:05;33.93;;;17.20;;
24277;SDS011;12394;42.692;23.314;2023-10-13T08:31:56;30.53;;;17.73;;
24277;SDS011;12394;42.692;23.314;2023-10-13T08:34:48;37.37;;;18.63;;
24277;SDS011;12394;42.692;23.314;2023-10-13T08:37:13;30.77;;;17.53;;
24277;SDS011;12394;42.692;23.314;2023-10-13T08:39:54;27.33;;;16.00;;
24277;SDS011;12394;42.692;23.314;2023-10-13T08:42:30;31.73;;;17.47;;
24277;SDS011;12394;42.692;23.314;2023-10-13T08:45:18;37.67;;;18.40;;
24277;SDS011;12394;42.692;23.314;2023-10-13T08:47:53;33.73;;;18.43;;
24277;SDS011;12394;42.692;23.314;2023-10-13T08:53:16;59.43;;;19.73;;
24277;SDS011;12394;42.692;23.314;2023-10-13T08:55:53;38.37;;;17.67;;
24277;SDS011;12394;42.692;23.314;2023-10-13T08:58:26;37.83;;;17.80;;
24277;SDS011;12394;42.692;23.314;2023-10-13T09:01:12;34.33;;;16.83;;
24277;SDS011;12394;42.692;23.314;2023-10-13T09:03:39;37.67;;;16.43;;
24277;SDS011;12394;42.692;23.314;2023-10-13T09:06:12;31.38;;;15.98;;
24277;SDS011;12394;42.692;23.314;2023-10-13T09:08:40;32.28;;;16.27;;
24277;SDS011;12394;42.692;23.314;2023-10-13T09:11:24;43.15;;;17.73;;
24277;SDS011;12394;42.692;23.314;2023-10-13T09:13:51;30.30;;;16.13;;
24277;SDS011;12394;42.692;23.314;2023-10-13T09:16:17;29.50;;;14.85;;
24277;SDS011;12394;42.692;23.314;2023-10-13T09:19:02;27.75;;;14.55;;
24277;SDS011;12394;42.692;23.314;2023-10-13T09:21:40;27.67;;;15.13;;
24277;SDS011;12394;42.692;23.314;2023-10-13T09:24:12;27.50;;;15.00;;
24277;SDS011;12394;42.692;23.314;2023-10-13T09:26:43;34.42;;;16.05;;
24277;SDS011;12394;42.692;23.314;2023-10-13T09:29:15;31.48;;;14.13;;
24277;SDS011;12394;42.692;23.314;2023-10-13T09:31:43;35.38;;;14.60;;
24277;SDS011;12394;42.692;23.314;2023-10-13T09:34:22;27.05;;;14.18;;
24277;SDS011;12394;42.692;23.314;2023-10-13T09:36:49;26.40;;;14.15;;
24277;SDS011;12394;42.692;23.314;2023-10-13T09:39:21;28.20;;;13.48;;
24277;SDS011;12394;42.692;23.314;2023-10-13T09:41:55;45.10;;;15.00;;
24277;SDS011;12394;42.692;23.314;2023-10-13T09:44:22;30.38;;;13.98;;
24277;SDS011;12394;42.692;23.314;2023-10-13T09:46:48;20.60;;;11.68;;
24277;SDS011;12394;42.692;23.314;2023-10-13T09:49:14;24.02;;;11.45;;
24277;SDS011;12394;42.692;23.314;2023-10-13T09:52:00;23.73;;;11.90;;
24277;SDS011;12394;42.692;23.314;2023-10-13T09:54:29;22.30;;;11.83;;
24277;SDS011;12394;42.692;23.314;2023-10-13T09:57:15;24.37;;;10.70;;
24277;SDS011;12394;42.692;23.314;2023-10-13T09:59:55;22.37;;;11.20;;
24277;SDS011;12394;42.692;23.314;2023-10-13T10:02:34;21.88;;;10.07;;
24277;SDS011;12394;42.692;23.314;2023-10-13T10:05:00;16.75;;;8.65;;
24277;SDS011;12394;42.692;23.314;2023-10-13T10:07:53;15.63;;;8.70;;
24277;SDS011;12394;42.692;23.314;2023-10-13T10:10:21;18.50;;;8.98;;
24277;SDS011;12394;42.692;23.314;2023-10-13T10:13:01;23.17;;;9.50;;
24277;SDS011;12394;42.692;23.314;2023-10-13T10:15:43;17.17;;;8.13;;
24277;SDS011;12394;42.692;23.314;2023-10-13T10:18:19;16.80;;;8.27;;
24277;SDS011;12394;42.692;23.314;2023-10-13T10:20:50;17.50;;;8.35;;
24277;SDS011;12394;42.692;23.314;2023-10-13T10:23:23;18.20;;;7.90;;
24277;SDS011;12394;42.692;23.314;2023-10-13T10:25:49;15.75;;;8.35;;
24277;SDS011;12394;42.692;23.314;2023-10-13T10:28:16;19.33;;;7.53;;
24277;SDS011;12394;42.692;23.314;2023-10-13T10:30:42;12.98;;;7.32;;
24277;SDS011;12394;42.692;23.314;2023-10-13T10:33:09;12.35;;;6.95;;
24277;SDS011;12394;42.692;23.314;2023-10-13T10:35:44;12.48;;;6.85;;
24277;SDS011;12394;42.692;23.314;2023-10-13T10:38:17;12.40;;;7.15;;
24277;SDS011;12394;42.692;23.314;2023-10-13T10:40:50;20.55;;;8.45;;
24277;SDS011;12394;42.692;23.314;2023-10-13T10:43:21;13.05;;;7.25;;
24277;SDS011;12394;42.692;23.314;2023-10-13T10:45:50;14.93;;;6.32;;
24277;SDS011;12394;42.692;23.314;2023-10-13T10:48:16;11.35;;;6.32;;
24277;SDS011;12394;42.692;23.314;2023-10-13T10:50:52;18.33;;;7.55;;
24277;SDS011;12394;42.692;23.314;2023-10-13T10:53:20;10.23;;;4.93;;
24277;SDS011;12394;42.692;23.314;2023-10-13T10:56:08;9.70;;;4.60;;
24277;SDS011;12394;42.692;23.314;2023-10-13T10:58:45;10.07;;;4.77;;
24277;SDS011;12394;42.692;23.314;2023-10-13T11:01:20;15.63;;;5.50;;
24277;SDS011;12394;42.692;23.314;2023-10-13T11:03:54;12.83;;;4.67;;
24277;SDS011;12394;42.692;23.314;2023-10-13T11:06:24;11.70;;;5.60;;
24277;SDS011;12394;42.692;23.314;2023-10-13T11:09:04;13.43;;;5.43;;
24277;SDS011;12394;42.692;23.314;2023-10-13T11:11:55;14.00;;;5.57;;
24277;SDS011;12394;42.692;23.314;2023-10-13T11:14:28;10.83;;;5.30;;
24277;SDS011;12394;42.692;23.314;2023-10-13T11:16:58;8.43;;;4.97;;
24277;SDS011;12394;42.692;23.314;2023-10-13T11:22:17;12.77;;;5.40;;
24277;SDS011;12394;42.692;23.314;2023-10-13T11:25:07;10.37;;;4.60;;
24277;SDS011;12394;42.692;23.314;2023-10-13T11:27:36;11.50;;;4.20;;
24277;SDS011;12394;42.692;23.314;2023-10-13T11:30:10;8.73;;;4.37;;
24277;SDS011;12394;42.692;23.314;2023-10-13T11:32:41;9.47;;;4.23;;
24277;SDS011;12394;42.692;23.314;2023-10-13T11:35:10;7.63;;;3.57;;
24277;SDS011;12394;42.692;23.314;2023-10-13T11:37:54;5.73;;;3.43;;
24277;SDS011;12394;42.692;23.314;2023-10-13T11:40:37;7.50;;;3.87;;
24277;SDS011;12394;42.692;23.314;2023-10-13T11:43:11;11.97;;;4.97;;
24277;SDS011;12394;42.692;23.314;2023-10-13T11:45:47;10.70;;;4.23;;
24277;SDS011;12394;42.692;23.314;2023-10-13T11:48:41;15.43;;;3.63;;
24277;SDS011;12394;42.692;23.314;2023-10-13T11:51:08;13.10;;;4.63;;
24277;SDS011;12394;42.692;23.314;2023-10-13T11:53:42;9.67;;;3.87;;
24277;SDS011;12394;42.692;23.314;2023-10-13T11:56:08;11.77;;;4.27;;
24277;SDS011;12394;42.692;23.314;2023-10-13T11:58:38;6.97;;;4.03;;
24277;SDS011;12394;42.692;23.314;2023-10-13T12:01:05;10.53;;;3.83;;
24277;SDS011;12394;42.692;23.314;2023-10-13T12:03:44;12.03;;;3.80;;
24277;SDS011;12394;42.692;23.314;2023-10-13T12:06:39;13.13;;;4.90;;
24277;SDS011;12394;42.692;23.314;2023-10-13T12:09:06;8.07;;;3.50;;
24277;SDS011;12394;42.692;23.314;2023-10-13T12:11:48;8.40;;;3.23;;
24277;SDS011;12394;42.692;23.314;2023-10-13T12:14:19;9.83;;;3.27;;
24277;SDS011;12394;42.692;23.314;2023-10-13T12:16:47;9.33;;;3.33;;
24277;SDS011;12394;42.692;23.314;2023-10-13T12:19:19;6.53;;;3.60;;
24277;SDS011;12394;42.692;23.314;2023-10-13T12:21:52;10.03;;;3.67;;
24277;SDS011;12394;42.692;23.314;2023-10-13T12:24:22;11.97;;;3.43;;
24277;SDS011;12394;42.692;23.314;2023-10-13T12:27:01;7.67;;;3.87;;
24277;SDS011;12394;42.692;23.314;2023-10-13T12:29:26;10.83;;;3.37;;
24277;SDS011;12394;42.692;23.314;2023-10-13T12:31:55;9.00;;;3.60;;
24277;SDS011;12394;42.692;23.314;2023-10-13T12:34:35;5.27;;;2.67;;
24277;SDS011;12394;42.692;23.314;2023-10-13T12:37:20;8.43;;;3.37;;
24277;SDS011;12394;42.692;23.314;2023-10-13T12:40:07;7.77;;;3.00;;
24277;SDS011;12394;42.692;23.314;2023-10-13T12:42:56;7.47;;;3.70;;
24277;SDS011;12394;42.692;23.314;2023-10-13T12:45:40;12.40;;;4.40;;
24277;SDS011;12394;42.692;23.314;2023-10-13T12:48:24;13.60;;;3.57;;
24277;SDS011;12394;42.692;23.314;2023-10-13T12:51:08;5.57;;;3.27;;
24277;SDS011;12394;42.692;23.314;2023-10-13T12:53:52;6.33;;;3.13;;
24277;SDS011;12394;42.692;23.314;2023-10-13T12:56:19;10.27;;;3.50;;
24277;SDS011;12394;42.692;23.314;2023-10-13T12:58:51;13.90;;;3.80;;
24277;SDS011;12394;42.692;23.314;2023-10-13T13:01:20;12.90;;;3.97;;
24277;SDS011;12394;42.692;23.314;2023-10-13T13:04:02;7.73;;;3.23;;
24277;SDS011;12394;42.692;23.314;2023-10-13T13:06:29;7.40;;;3.47;;
24277;SDS011;12394;42.692;23.314;2023-10-13T13:08:57;9.33;;;3.33;;
24277;SDS011;12394;42.692;23.314;2023-10-13T13:11:24;6.57;;;3.37;;
24277;SDS011;12394;42.692;23.314;2023-10-13T13:13:51;11.10;;;3.27;;
24277;SDS011;12394;42.692;23.314;2023-10-13T13:16:17;6.20;;;3.60;;
24277;SDS011;12394;42.692;23.314;2023-10-13T13:18:46;8.07;;;4.10;;
24277;SDS011;12394;42.692;23.314;2023-10-13T13:21:12;6.10;;;3.03;;
24277;SDS011;12394;42.692;23.314;2023-10-13T13:23:45;9.07;;;3.63;;
24277;SDS011;12394;42.692;23.314;2023-10-13T13:26:10;8.57;;;3.50;;
24277;SDS011;12394;42.692;23.314;2023-10-13T13:28:45;6.80;;;3.30;;
24277;SDS011;12394;42.692;23.314;2023-10-13T13:31:15;8.90;;;3.47;;
24277;SDS011;12394;42.692;23.314;2023-10-13T13:33:41;15.73;;;5.07;;
24277;SDS011;12394;42.692;23.314;2023-10-13T13:36:09;12.97;;;3.60;;
24277;SDS011;12394;42.692;23.314;2023-10-13T13:38:43;11.63;;;4.20;;
24277;SDS011;12394;42.692;23.314;2023-10-13T13:41:15;7.73;;;3.93;;
24277;SDS011;12394;42.692;23.314;2023-10-13T13:43:45;10.57;;;3.57;;
24277;SDS011;12394;42.692;23.314;2023-10-13T13:46:18;8.97;;;3.53;;
24277;SDS011;12394;42.692;23.314;2023-10-13T13:48:50;7.67;;;3.83;;
24277;SDS011;12394;42.692;23.314;2023-10-13T13:51:22;7.07;;;3.60;;
24277;SDS011;12394;42.692;23.314;2023-10-13T13:53:52;10.30;;;3.63;;
24277;SDS011;12394;42.692;23.314;2023-10-13T13:56:19;5.23;;;3.13;;
24277;SDS011;12394;42.692;23.314;2023-10-13T13:58:48;6.60;;;3.43;;
24277;SDS011;12394;42.692;23.314;2023-10-13T14:01:15;12.80;;;4.20;;
24277;SDS011;12394;42.692;23.314;2023-10-13T14:03:44;9.70;;;4.67;;
24277;SDS011;12394;42.692;23.314;2023-10-13T14:06:12;8.50;;;3.93;;
24277;SDS011;12394;42.692;23.314;2023-10-13T14:08:43;10.60;;;4.43;;
24277;SDS011;12394;42.692;23.314;2023-10-13T14:11:10;10.63;;;4.03;;
24277;SDS011;12394;42.692;23.314;2023-10-13T14:13:39;10.27;;;4.10;;
24277;SDS011;12394;42.692;23.314;2023-10-13T14:16:18;9.77;;;5.20;;
24277;SDS011;12394;42.692;23.314;2023-10-13T14:18:48;12.23;;;4.57;;
24277;SDS011;12394;42.692;23.314;2023-10-13T14:21:14;9.93;;;4.67;;
24277;SDS011;12394;42.692;23.314;2023-10-13T14:26:11;9.87;;;4.30;;
24277;SDS011;12394;42.692;23.314;2023-10-13T14:28:38;7.70;;;3.83;;
24277;SDS011;12394;42.692;23.314;2023-10-13T14:31:12;15.17;;;4.80;;
24277;SDS011;12394;42.692;23.314;2023-10-13T14:33:39;9.17;;;4.00;;
24277;SDS011;12394;42.692;23.314;2023-10-13T14:36:04;14.07;;;5.10;;
24277;SDS011;12394;42.692;23.314;2023-10-13T14:38:30;9.30;;;4.13;;
24277;SDS011;12394;42.692;23.314;2023-10-13T14:40:59;8.97;;;4.20;;
24277;SDS011;12394;42.692;23.314;2023-10-13T14:43:24;9.73;;;4.77;;
24277;SDS011;12394;42.692;23.314;2023-10-13T14:45:53;11.30;;;4.37;;
24277;SDS011;12394;42.692;23.314;2023-10-13T14:48:18;7.87;;;4.27;;
24277;SDS011;12394;42.692;23.314;2023-10-13T14:50:44;7.47;;;4.23;;
24277;SDS011;12394;42.692;23.314;2023-10-13T14:53:10;7.60;;;4.17;;
24277;SDS011;12394;42.692;23.314;2023-10-13T14:55:36;9.50;;;4.63;;
24277;SDS011;12394;42.692;23.314;2023-10-13T14:58:04;14.63;;;5.10;;
24277;SDS011;12394;42.692;23.314;2023-10-13T15:00:32;9.03;;;4.80;;
24277;SDS011;12394;42.692;23.314;2023-10-13T15:02:59;8.40;;;4.97;;
24277;SDS011;12394;42.692;23.314;2023-10-13T15:05:30;10.47;;;4.40;;
24277;SDS011;12394;42.692;23.314;2023-10-13T15:07:56;8.30;;;4.80;;
24277;SDS011;12394;42.692;23.314;2023-10-13T15:10:22;10.80;;;5.37;;
24277;SDS011;12394;42.692;23.314;2023-10-13T15:12:49;8.53;;;5.33;;